In Rescue
 
Open Full Screen Window  High Contrast Mode
January 24, 2020 8:09 PM CST
Weather Information
Wind Direction
  ---
Wind Speed
  00 kt (0 mph)
Wind Gust
  00 kt (0 mph)
Altimeter
30.02 in
Visibility
10 SM
Temperature
-03° C
27° F
Dewpoint
-06° C
21° F
Humidity
80%
1hr Rain Fall
00.00 in.
24hr Rain Fall
00.00 in.
Sky Condition
Overcast @ 2,900 ft
MVFR

METAR KADC 250209Z AUTO 00000KT 10SM OVC029 M03/M06 A3002 RMK AO2

FAA Disclaimer: The data displayed is for advisory purposes only and is not to be used for flight planning or operations.